Altoona, Florida
Current Conditions -  °F | °C
As of 2:53 PM on Friday 24 Oct 2014 (Local Time) from KLEE Reporting Station
Broken Clouds Broken Clouds  
Wind Chill: 77°   Ceiling: 4900
Heat Index: 78°   Visibility: 10mi
Dew Point: 54°   Wind: 10mph
Humidity: 45%   Direction: 70°ENE
Pressure: 29.96"   Gusts: 18mph
Location:  28.97°N, 81.65°W
Report Text: KLEE 241853Z 07009G16KT 10SM BKN049 25/12 A2996 RMK AO2 SLP143 T02500122
Loading
Personal Weather Stations






























Interactive Weather Map
Tropical Storm Tracking
New forecast layout! Learn more

10-Day Weather Forecast

Advertisements
Track Severe Weather on mobile